sensor_id;sensor_type;location;lat;lon;timestamp;P1;durP1;ratioP1;P2;durP2;ratioP2
9449;SDS011;4763;48.370;10.874;2024-02-14T00:02:04;16.13;;;11.80;;
9449;SDS011;4763;48.370;10.874;2024-02-14T00:04:32;18.70;;;12.27;;
9449;SDS011;4763;48.370;10.874;2024-02-14T00:06:59;14.57;;;10.03;;
9449;SDS011;4763;48.370;10.874;2024-02-14T00:09:26;15.17;;;9.80;;
9449;SDS011;4763;48.370;10.874;2024-02-14T00:11:53;14.83;;;9.83;;
9449;SDS011;4763;48.370;10.874;2024-02-14T00:14:19;15.10;;;8.87;;
9449;SDS011;4763;48.370;10.874;2024-02-14T00:16:46;15.23;;;8.50;;
9449;SDS011;4763;48.370;10.874;2024-02-14T00:19:13;12.83;;;7.37;;
9449;SDS011;4763;48.370;10.874;2024-02-14T00:21:41;11.63;;;7.50;;
9449;SDS011;4763;48.370;10.874;2024-02-14T00:24:08;10.73;;;7.37;;
9449;SDS011;4763;48.370;10.874;2024-02-14T00:26:36;11.40;;;7.97;;
9449;SDS011;4763;48.370;10.874;2024-02-14T00:29:04;11.13;;;6.90;;
9449;SDS011;4763;48.370;10.874;2024-02-14T00:31:31;11.30;;;6.80;;
9449;SDS011;4763;48.370;10.874;2024-02-14T00:33:58;11.03;;;7.47;;
9449;SDS011;4763;48.370;10.874;2024-02-14T00:36:25;10.90;;;6.87;;
9449;SDS011;4763;48.370;10.874;2024-02-14T00:38:53;11.23;;;6.83;;
9449;SDS011;4763;48.370;10.874;2024-02-14T00:41:20;8.67;;;6.20;;
9449;SDS011;4763;48.370;10.874;2024-02-14T00:43:47;8.23;;;6.17;;
9449;SDS011;4763;48.370;10.874;2024-02-14T00:46:15;10.30;;;6.33;;
9449;SDS011;4763;48.370;10.874;2024-02-14T00:48:43;7.37;;;5.30;;
9449;SDS011;4763;48.370;10.874;2024-02-14T00:51:10;7.37;;;5.40;;
9449;SDS011;4763;48.370;10.874;2024-02-14T00:53:37;9.17;;;5.70;;
9449;SDS011;4763;48.370;10.874;2024-02-14T00:56:06;11.80;;;5.97;;
9449;SDS011;4763;48.370;10.874;2024-02-14T00:58:33;12.73;;;6.43;;
9449;SDS011;4763;48.370;10.874;2024-02-14T01:01:00;6.70;;;4.90;;
9449;SDS011;4763;48.370;10.874;2024-02-14T01:03:27;8.97;;;5.63;;
9449;SDS011;4763;48.370;10.874;2024-02-14T01:05:54;9.90;;;5.80;;
9449;SDS011;4763;48.370;10.874;2024-02-14T01:08:21;7.23;;;5.43;;
9449;SDS011;4763;48.370;10.874;2024-02-14T01:10:47;9.97;;;5.30;;
9449;SDS011;4763;48.370;10.874;2024-02-14T01:13:16;6.20;;;5.40;;
9449;SDS011;4763;48.370;10.874;2024-02-14T01:15:43;11.20;;;5.77;;
9449;SDS011;4763;48.370;10.874;2024-02-14T01:18:11;12.57;;;5.90;;
9449;SDS011;4763;48.370;10.874;2024-02-14T01:20:38;10.00;;;5.17;;
9449;SDS011;4763;48.370;10.874;2024-02-14T01:23:05;6.83;;;5.13;;
9449;SDS011;4763;48.370;10.874;2024-02-14T01:25:32;7.57;;;4.80;;
9449;SDS011;4763;48.370;10.874;2024-02-14T01:27:59;6.37;;;4.73;;
9449;SDS011;4763;48.370;10.874;2024-02-14T01:30:27;9.33;;;5.87;;
9449;SDS011;4763;48.370;10.874;2024-02-14T01:32:54;9.90;;;5.37;;
9449;SDS011;4763;48.370;10.874;2024-02-14T01:35:21;9.40;;;6.00;;
9449;SDS011;4763;48.370;10.874;2024-02-14T01:37:47;8.77;;;5.63;;
9449;SDS011;4763;48.370;10.874;2024-02-14T01:40:14;7.17;;;4.63;;
9449;SDS011;4763;48.370;10.874;2024-02-14T01:42:41;6.77;;;4.83;;
9449;SDS011;4763;48.370;10.874;2024-02-14T01:45:08;7.80;;;5.03;;
9449;SDS011;4763;48.370;10.874;2024-02-14T01:47:37;5.60;;;4.60;;
9449;SDS011;4763;48.370;10.874;2024-02-14T01:50:06;9.57;;;5.63;;
9449;SDS011;4763;48.370;10.874;2024-02-14T01:52:36;6.93;;;4.73;;
9449;SDS011;4763;48.370;10.874;2024-02-14T01:55:04;6.63;;;4.90;;
9449;SDS011;4763;48.370;10.874;2024-02-14T01:57:31;8.27;;;4.83;;
9449;SDS011;4763;48.370;10.874;2024-02-14T01:59:59;8.63;;;4.77;;
9449;SDS011;4763;48.370;10.874;2024-02-14T02:02:33;7.57;;;5.17;;
9449;SDS011;4763;48.370;10.874;2024-02-14T02:05:03;6.37;;;4.30;;
9449;SDS011;4763;48.370;10.874;2024-02-14T02:07:30;6.00;;;4.17;;
9449;SDS011;4763;48.370;10.874;2024-02-14T02:09:58;7.17;;;4.80;;
9449;SDS011;4763;48.370;10.874;2024-02-14T02:12:26;9.47;;;4.00;;
9449;SDS011;4763;48.370;10.874;2024-02-14T02:14:53;6.00;;;4.07;;
9449;SDS011;4763;48.370;10.874;2024-02-14T02:17:20;5.27;;;4.00;;
9449;SDS011;4763;48.370;10.874;2024-02-14T02:19:47;7.13;;;4.40;;
9449;SDS011;4763;48.370;10.874;2024-02-14T02:22:15;4.70;;;3.67;;
9449;SDS011;4763;48.370;10.874;2024-02-14T02:24:43;7.00;;;3.53;;
9449;SDS011;4763;48.370;10.874;2024-02-14T02:27:12;9.23;;;3.70;;
9449;SDS011;4763;48.370;10.874;2024-02-14T02:29:41;8.77;;;4.17;;
9449;SDS011;4763;48.370;10.874;2024-02-14T02:32:08;6.40;;;4.00;;
9449;SDS011;4763;48.370;10.874;2024-02-14T02:34:35;5.10;;;3.80;;
9449;SDS011;4763;48.370;10.874;2024-02-14T02:37:04;7.13;;;3.50;;
9449;SDS011;4763;48.370;10.874;2024-02-14T02:39:32;5.03;;;3.33;;
9449;SDS011;4763;48.370;10.874;2024-02-14T02:42:02;5.70;;;3.40;;
9449;SDS011;4763;48.370;10.874;2024-02-14T02:44:30;7.90;;;3.73;;
9449;SDS011;4763;48.370;10.874;2024-02-14T02:46:57;5.80;;;3.33;;
9449;SDS011;4763;48.370;10.874;2024-02-14T02:49:25;5.13;;;3.50;;
9449;SDS011;4763;48.370;10.874;2024-02-14T02:51:54;5.93;;;3.10;;
9449;SDS011;4763;48.370;10.874;2024-02-14T02:54:21;7.23;;;3.80;;
9449;SDS011;4763;48.370;10.874;2024-02-14T02:56:48;5.37;;;3.43;;
9449;SDS011;4763;48.370;10.874;2024-02-14T02:59:16;6.50;;;3.60;;
9449;SDS011;4763;48.370;10.874;2024-02-14T03:01:43;4.50;;;3.23;;
9449;SDS011;4763;48.370;10.874;2024-02-14T03:04:11;5.43;;;3.47;;
9449;SDS011;4763;48.370;10.874;2024-02-14T03:06:39;6.00;;;3.00;;
9449;SDS011;4763;48.370;10.874;2024-02-14T03:09:08;5.47;;;3.47;;
9449;SDS011;4763;48.370;10.874;2024-02-14T03:11:35;5.60;;;3.30;;
9449;SDS011;4763;48.370;10.874;2024-02-14T03:14:02;4.63;;;3.10;;
9449;SDS011;4763;48.370;10.874;2024-02-14T03:16:30;3.40;;;3.00;;
9449;SDS011;4763;48.370;10.874;2024-02-14T03:18:57;4.77;;;3.30;;
9449;SDS011;4763;48.370;10.874;2024-02-14T03:21:25;4.20;;;2.83;;
9449;SDS011;4763;48.370;10.874;2024-02-14T03:23:53;5.63;;;3.30;;
9449;SDS011;4763;48.370;10.874;2024-02-14T03:26:20;4.63;;;2.93;;
9449;SDS011;4763;48.370;10.874;2024-02-14T03:28:48;6.13;;;3.70;;
9449;SDS011;4763;48.370;10.874;2024-02-14T03:31:14;8.23;;;3.63;;
9449;SDS011;4763;48.370;10.874;2024-02-14T03:33:43;4.80;;;2.97;;
9449;SDS011;4763;48.370;10.874;2024-02-14T03:36:10;4.43;;;3.13;;
9449;SDS011;4763;48.370;10.874;2024-02-14T03:38:37;10.07;;;3.47;;
9449;SDS011;4763;48.370;10.874;2024-02-14T03:41:04;4.27;;;3.07;;
9449;SDS011;4763;48.370;10.874;2024-02-14T03:43:32;5.27;;;3.63;;
9449;SDS011;4763;48.370;10.874;2024-02-14T03:45:59;4.87;;;3.23;;
9449;SDS011;4763;48.370;10.874;2024-02-14T03:48:26;4.27;;;3.20;;
9449;SDS011;4763;48.370;10.874;2024-02-14T03:50:54;5.70;;;3.27;;
9449;SDS011;4763;48.370;10.874;2024-02-14T03:53:22;5.83;;;3.27;;
9449;SDS011;4763;48.370;10.874;2024-02-14T03:55:49;5.63;;;3.00;;
9449;SDS011;4763;48.370;10.874;2024-02-14T03:58:17;4.10;;;2.73;;
9449;SDS011;4763;48.370;10.874;2024-02-14T04:00:47;5.67;;;2.93;;
9449;SDS011;4763;48.370;10.874;2024-02-14T04:03:15;4.40;;;2.67;;
9449;SDS011;4763;48.370;10.874;2024-02-14T04:05:42;6.03;;;3.40;;
9449;SDS011;4763;48.370;10.874;2024-02-14T04:08:10;7.47;;;3.17;;
9449;SDS011;4763;48.370;10.874;2024-02-14T04:10:37;5.53;;;3.13;;
9449;SDS011;4763;48.370;10.874;2024-02-14T04:13:04;4.43;;;2.67;;
9449;SDS011;4763;48.370;10.874;2024-02-14T04:15:32;6.67;;;3.23;;
9449;SDS011;4763;48.370;10.874;2024-02-14T04:17:58;4.97;;;3.60;;
9449;SDS011;4763;48.370;10.874;2024-02-14T04:20:27;4.80;;;3.27;;
9449;SDS011;4763;48.370;10.874;2024-02-14T04:22:54;7.03;;;2.77;;
9449;SDS011;4763;48.370;10.874;2024-02-14T04:25:25;6.03;;;3.07;;
9449;SDS011;4763;48.370;10.874;2024-02-14T04:27:52;3.73;;;2.50;;
9449;SDS011;4763;48.370;10.874;2024-02-14T04:30:18;4.63;;;2.97;;
9449;SDS011;4763;48.370;10.874;2024-02-14T04:32:45;4.30;;;2.60;;
9449;SDS011;4763;48.370;10.874;2024-02-14T04:35:12;5.13;;;3.20;;
9449;SDS011;4763;48.370;10.874;2024-02-14T04:37:40;4.83;;;2.50;;
9449;SDS011;4763;48.370;10.874;2024-02-14T04:40:11;3.13;;;2.57;;
9449;SDS011;4763;48.370;10.874;2024-02-14T04:42:40;6.70;;;3.03;;
9449;SDS011;4763;48.370;10.874;2024-02-14T04:45:10;2.83;;;2.33;;
9449;SDS011;4763;48.370;10.874;2024-02-14T04:47:37;3.87;;;2.50;;
9449;SDS011;4763;48.370;10.874;2024-02-14T04:50:04;7.03;;;2.40;;
9449;SDS011;4763;48.370;10.874;2024-02-14T04:52:31;4.07;;;2.30;;
9449;SDS011;4763;48.370;10.874;2024-02-14T04:54:58;3.60;;;2.63;;
9449;SDS011;4763;48.370;10.874;2024-02-14T04:57:25;4.37;;;3.13;;
9449;SDS011;4763;48.370;10.874;2024-02-14T04:59:53;5.03;;;3.07;;
9449;SDS011;4763;48.370;10.874;2024-02-14T05:02:20;2.63;;;2.07;;
9449;SDS011;4763;48.370;10.874;2024-02-14T05:04:47;3.00;;;2.13;;
9449;SDS011;4763;48.370;10.874;2024-02-14T05:07:14;5.50;;;2.73;;
9449;SDS011;4763;48.370;10.874;2024-02-14T05:09:41;4.80;;;2.43;;
9449;SDS011;4763;48.370;10.874;2024-02-14T05:12:10;4.87;;;2.43;;
9449;SDS011;4763;48.370;10.874;2024-02-14T05:14:37;3.77;;;3.07;;
9449;SDS011;4763;48.370;10.874;2024-02-14T05:17:06;3.87;;;2.60;;
9449;SDS011;4763;48.370;10.874;2024-02-14T05:19:33;2.43;;;2.00;;
9449;SDS011;4763;48.370;10.874;2024-02-14T05:22:01;5.57;;;2.43;;
9449;SDS011;4763;48.370;10.874;2024-02-14T05:24:27;4.37;;;2.47;;
9449;SDS011;4763;48.370;10.874;2024-02-14T05:26:56;3.03;;;2.33;;
9449;SDS011;4763;48.370;10.874;2024-02-14T05:29:23;2.97;;;2.53;;
9449;SDS011;4763;48.370;10.874;2024-02-14T05:31:49;2.50;;;2.23;;
9449;SDS011;4763;48.370;10.874;2024-02-14T05:34:19;3.37;;;2.53;;
9449;SDS011;4763;48.370;10.874;2024-02-14T05:36:45;6.90;;;3.10;;
9449;SDS011;4763;48.370;10.874;2024-02-14T05:39:12;12.03;;;5.83;;
9449;SDS011;4763;48.370;10.874;2024-02-14T05:41:40;9.50;;;5.10;;
9449;SDS011;4763;48.370;10.874;2024-02-14T05:44:08;7.00;;;3.87;;
9449;SDS011;4763;48.370;10.874;2024-02-14T05:46:37;6.40;;;2.87;;
9449;SDS011;4763;48.370;10.874;2024-02-14T05:49:03;2.97;;;2.20;;
9449;SDS011;4763;48.370;10.874;2024-02-14T05:51:32;4.47;;;2.83;;
9449;SDS011;4763;48.370;10.874;2024-02-14T05:54:00;3.33;;;2.77;;
9449;SDS011;4763;48.370;10.874;2024-02-14T05:56:27;3.53;;;2.63;;
9449;SDS011;4763;48.370;10.874;2024-02-14T05:58:54;5.87;;;3.57;;
9449;SDS011;4763;48.370;10.874;2024-02-14T06:01:21;7.33;;;4.20;;
9449;SDS011;4763;48.370;10.874;2024-02-14T06:03:48;6.93;;;3.93;;
9449;SDS011;4763;48.370;10.874;2024-02-14T06:06:15;4.87;;;3.10;;
9449;SDS011;4763;48.370;10.874;2024-02-14T06:08:43;7.13;;;4.27;;
9449;SDS011;4763;48.370;10.874;2024-02-14T06:11:10;7.07;;;4.30;;
9449;SDS011;4763;48.370;10.874;2024-02-14T06:13:37;12.83;;;6.00;;
9449;SDS011;4763;48.370;10.874;2024-02-14T06:16:04;11.87;;;5.30;;
9449;SDS011;4763;48.370;10.874;2024-02-14T06:18:33;6.77;;;4.07;;
9449;SDS011;4763;48.370;10.874;2024-02-14T06:21:00;6.17;;;3.83;;
9449;SDS011;4763;48.370;10.874;2024-02-14T06:23:27;9.00;;;4.20;;
9449;SDS011;4763;48.370;10.874;2024-02-14T06:25:55;6.43;;;4.27;;
9449;SDS011;4763;48.370;10.874;2024-02-14T06:28:22;9.53;;;4.50;;
9449;SDS011;4763;48.370;10.874;2024-02-14T06:30:50;7.80;;;3.97;;
9449;SDS011;4763;48.370;10.874;2024-02-14T06:33:17;6.67;;;3.00;;
9449;SDS011;4763;48.370;10.874;2024-02-14T06:35:44;4.70;;;2.77;;
9449;SDS011;4763;48.370;10.874;2024-02-14T06:38:11;8.67;;;3.23;;
9449;SDS011;4763;48.370;10.874;2024-02-14T06:40:48;5.30;;;3.20;;
9449;SDS011;4763;48.370;10.874;2024-02-14T06:43:16;4.73;;;2.70;;
9449;SDS011;4763;48.370;10.874;2024-02-14T06:45:44;4.47;;;3.10;;
9449;SDS011;4763;48.370;10.874;2024-02-14T06:48:12;5.03;;;2.47;;
9449;SDS011;4763;48.370;10.874;2024-02-14T06:50:39;5.67;;;2.77;;
9449;SDS011;4763;48.370;10.874;2024-02-14T06:53:06;3.23;;;2.40;;
9449;SDS011;4763;48.370;10.874;2024-02-14T06:55:32;5.03;;;2.67;;
9449;SDS011;4763;48.370;10.874;2024-02-14T06:58:03;3.93;;;2.27;;
9449;SDS011;4763;48.370;10.874;2024-02-14T07:00:32;4.27;;;2.57;;
9449;SDS011;4763;48.370;10.874;2024-02-14T07:02:59;3.57;;;2.23;;
9449;SDS011;4763;48.370;10.874;2024-02-14T07:05:26;5.73;;;2.30;;
9449;SDS011;4763;48.370;10.874;2024-02-14T07:07:54;3.27;;;2.13;;
9449;SDS011;4763;48.370;10.874;2024-02-14T07:10:21;3.37;;;2.33;;
9449;SDS011;4763;48.370;10.874;2024-02-14T07:12:47;3.30;;;2.07;;
9449;SDS011;4763;48.370;10.874;2024-02-14T07:15:14;5.33;;;2.10;;
9449;SDS011;4763;48.370;10.874;2024-02-14T07:17:42;6.13;;;2.40;;
9449;SDS011;4763;48.370;10.874;2024-02-14T07:20:09;4.47;;;1.90;;
9449;SDS011;4763;48.370;10.874;2024-02-14T07:22:38;4.37;;;2.27;;
9449;SDS011;4763;48.370;10.874;2024-02-14T07:25:05;4.07;;;1.80;;
9449;SDS011;4763;48.370;10.874;2024-02-14T07:27:33;2.53;;;1.70;;
9449;SDS011;4763;48.370;10.874;2024-02-14T07:29:59;6.07;;;1.70;;
9449;SDS011;4763;48.370;10.874;2024-02-14T07:32:26;3.03;;;1.73;;
9449;SDS011;4763;48.370;10.874;2024-02-14T07:34:55;4.00;;;2.10;;
9449;SDS011;4763;48.370;10.874;2024-02-14T07:37:22;3.93;;;1.73;;
9449;SDS011;4763;48.370;10.874;2024-02-14T07:39:50;4.00;;;2.23;;
9449;SDS011;4763;48.370;10.874;2024-02-14T07:42:17;2.60;;;1.83;;
9449;SDS011;4763;48.370;10.874;2024-02-14T07:44:44;4.10;;;1.80;;
9449;SDS011;4763;48.370;10.874;2024-02-14T07:47:11;5.43;;;1.83;;
9449;SDS011;4763;48.370;10.874;2024-02-14T07:49:38;3.97;;;1.97;;
9449;SDS011;4763;48.370;10.874;2024-02-14T07:52:07;5.43;;;1.97;;
9449;SDS011;4763;48.370;10.874;2024-02-14T07:54:34;3.67;;;1.90;;
9449;SDS011;4763;48.370;10.874;2024-02-14T07:57:03;3.20;;;1.60;;
9449;SDS011;4763;48.370;10.874;2024-02-14T07:59:30;2.37;;;1.60;;
9449;SDS011;4763;48.370;10.874;2024-02-14T08:01:57;3.53;;;1.60;;
9449;SDS011;4763;48.370;10.874;2024-02-14T08:04:24;4.50;;;1.80;;
9449;SDS011;4763;48.370;10.874;2024-02-14T08:06:51;3.00;;;1.77;;
9449;SDS011;4763;48.370;10.874;2024-02-14T08:09:19;2.77;;;1.40;;
9449;SDS011;4763;48.370;10.874;2024-02-14T08:11:46;4.40;;;2.03;;
9449;SDS011;4763;48.370;10.874;2024-02-14T08:14:13;4.33;;;1.67;;
9449;SDS011;4763;48.370;10.874;2024-02-14T08:16:40;6.97;;;1.60;;
9449;SDS011;4763;48.370;10.874;2024-02-14T08:19:07;2.93;;;1.80;;
9449;SDS011;4763;48.370;10.874;2024-02-14T08:21:35;1.60;;;1.10;;
9449;SDS011;4763;48.370;10.874;2024-02-14T08:24:02;3.20;;;1.40;;
9449;SDS011;4763;48.370;10.874;2024-02-14T08:26:31;1.93;;;1.27;;
9449;SDS011;4763;48.370;10.874;2024-02-14T08:28:58;1.90;;;1.37;;
9449;SDS011;4763;48.370;10.874;2024-02-14T08:31:25;2.43;;;1.30;;
9449;SDS011;4763;48.370;10.874;2024-02-14T08:33:52;1.63;;;1.00;;
9449;SDS011;4763;48.370;10.874;2024-02-14T08:36:20;1.77;;;1.33;;
9449;SDS011;4763;48.370;10.874;2024-02-14T08:38:47;3.37;;;1.63;;
9449;SDS011;4763;48.370;10.874;2024-02-14T08:41:14;1.87;;;1.37;;
9449;SDS011;4763;48.370;10.874;2024-02-14T08:43:43;4.00;;;1.63;;
9449;SDS011;4763;48.370;10.874;2024-02-14T08:46:11;2.33;;;1.17;;
9449;SDS011;4763;48.370;10.874;2024-02-14T08:48:38;4.10;;;1.60;;
9449;SDS011;4763;48.370;10.874;2024-02-14T08:51:16;3.13;;;1.70;;
9449;SDS011;4763;48.370;10.874;2024-02-14T08:53:45;3.20;;;1.10;;
9449;SDS011;4763;48.370;10.874;2024-02-14T08:56:12;5.40;;;1.50;;
9449;SDS011;4763;48.370;10.874;2024-02-14T08:58:39;1.40;;;1.07;;
9449;SDS011;4763;48.370;10.874;2024-02-14T09:01:07;2.63;;;1.20;;
9449;SDS011;4763;48.370;10.874;2024-02-14T09:03:36;1.87;;;1.40;;
9449;SDS011;4763;48.370;10.874;2024-02-14T09:06:03;3.63;;;1.60;;
9449;SDS011;4763;48.370;10.874;2024-02-14T09:08:31;2.50;;;1.50;;
9449;SDS011;4763;48.370;10.874;2024-02-14T09:10:58;3.00;;;1.57;;
9449;SDS011;4763;48.370;10.874;2024-02-14T09:13:25;6.37;;;1.83;;
9449;SDS011;4763;48.370;10.874;2024-02-14T09:15:52;3.97;;;2.27;;
9449;SDS011;4763;48.370;10.874;2024-02-14T09:18:21;4.47;;;1.90;;
9449;SDS011;4763;48.370;10.874;2024-02-14T09:20:50;5.07;;;1.90;;
9449;SDS011;4763;48.370;10.874;2024-02-14T09:23:17;3.53;;;1.80;;
9449;SDS011;4763;48.370;10.874;2024-02-14T09:25:45;2.60;;;1.67;;
9449;SDS011;4763;48.370;10.874;2024-02-14T09:28:13;3.83;;;1.67;;
9449;SDS011;4763;48.370;10.874;2024-02-14T09:30:40;4.13;;;1.93;;
9449;SDS011;4763;48.370;10.874;2024-02-14T09:33:07;3.60;;;2.20;;
9449;SDS011;4763;48.370;10.874;2024-02-14T09:35:35;3.37;;;1.60;;
9449;SDS011;4763;48.370;10.874;2024-02-14T09:38:03;2.67;;;1.87;;
9449;SDS011;4763;48.370;10.874;2024-02-14T09:40:30;4.03;;;2.37;;
9449;SDS011;4763;48.370;10.874;2024-02-14T09:42:57;4.37;;;1.60;;
9449;SDS011;4763;48.370;10.874;2024-02-14T09:45:31;4.27;;;1.70;;
9449;SDS011;4763;48.370;10.874;2024-02-14T09:47:58;2.43;;;1.47;;
9449;SDS011;4763;48.370;10.874;2024-02-14T09:50:26;1.63;;;1.20;;
9449;SDS011;4763;48.370;10.874;2024-02-14T09:52:58;2.17;;;1.40;;
9449;SDS011;4763;48.370;10.874;2024-02-14T09:55:26;3.27;;;1.57;;
9449;SDS011;4763;48.370;10.874;2024-02-14T09:57:53;2.67;;;1.50;;
9449;SDS011;4763;48.370;10.874;2024-02-14T10:00:21;1.90;;;1.30;;
9449;SDS011;4763;48.370;10.874;2024-02-14T10:02:49;2.70;;;1.43;;
9449;SDS011;4763;48.370;10.874;2024-02-14T10:05:16;2.37;;;1.43;;
9449;SDS011;4763;48.370;10.874;2024-02-14T10:07:43;2.70;;;1.40;;
9449;SDS011;4763;48.370;10.874;2024-02-14T10:10:13;2.77;;;1.57;;
9449;SDS011;4763;48.370;10.874;2024-02-14T10:12:40;3.33;;;1.77;;
9449;SDS011;4763;48.370;10.874;2024-02-14T10:15:08;2.10;;;1.37;;
9449;SDS011;4763;48.370;10.874;2024-02-14T10:17:35;2.07;;;1.50;;
9449;SDS011;4763;48.370;10.874;2024-02-14T10:20:06;4.57;;;1.47;;
9449;SDS011;4763;48.370;10.874;2024-02-14T10:22:35;2.37;;;1.40;;
9449;SDS011;4763;48.370;10.874;2024-02-14T10:25:03;1.97;;;1.50;;
9449;SDS011;4763;48.370;10.874;2024-02-14T10:27:35;4.07;;;1.80;;
9449;SDS011;4763;48.370;10.874;2024-02-14T10:30:03;1.63;;;1.10;;
9449;SDS011;4763;48.370;10.874;2024-02-14T10:32:33;2.60;;;1.33;;
9449;SDS011;4763;48.370;10.874;2024-02-14T10:35:05;2.63;;;1.40;;
9449;SDS011;4763;48.370;10.874;2024-02-14T10:37:34;2.20;;;1.40;;
9449;SDS011;4763;48.370;10.874;2024-02-14T10:40:02;3.10;;;1.40;;
9449;SDS011;4763;48.370;10.874;2024-02-14T10:42:30;3.80;;;1.70;;
9449;SDS011;4763;48.370;10.874;2024-02-14T10:45:02;2.10;;;1.43;;
9449;SDS011;4763;48.370;10.874;2024-02-14T10:47:34;2.40;;;1.50;;
9449;SDS011;4763;48.370;10.874;2024-02-14T10:50:02;2.10;;;1.30;;
9449;SDS011;4763;48.370;10.874;2024-02-14T10:52:31;2.23;;;1.50;;
9449;SDS011;4763;48.370;10.874;2024-02-14T10:55:01;3.03;;;1.40;;
9449;SDS011;4763;48.370;10.874;2024-02-14T10:57:29;2.20;;;1.40;;
9449;SDS011;4763;48.370;10.874;2024-02-14T10:59:57;1.70;;;1.20;;
9449;SDS011;4763;48.370;10.874;2024-02-14T11:02:27;3.10;;;1.23;;
9449;SDS011;4763;48.370;10.874;2024-02-14T11:04:55;1.97;;;1.40;;
9449;SDS011;4763;48.370;10.874;2024-02-14T11:07:22;4.53;;;1.87;;
9449;SDS011;4763;48.370;10.874;2024-02-14T11:09:59;2.90;;;1.60;;
9449;SDS011;4763;48.370;10.874;2024-02-14T11:12:32;4.67;;;1.53;;
9449;SDS011;4763;48.370;10.874;2024-02-14T11:15:00;1.20;;;1.10;;
9449;SDS011;4763;48.370;10.874;2024-02-14T11:17:30;3.13;;;1.23;;
9449;SDS011;4763;48.370;10.874;2024-02-14T11:19:57;1.80;;;1.30;;
9449;SDS011;4763;48.370;10.874;2024-02-14T11:22:24;1.73;;;1.23;;
9449;SDS011;4763;48.370;10.874;2024-02-14T11:24:51;2.33;;;1.60;;
9449;SDS011;4763;48.370;10.874;2024-02-14T11:27:19;2.80;;;1.30;;
9449;SDS011;4763;48.370;10.874;2024-02-14T11:29:51;3.17;;;1.57;;
9449;SDS011;4763;48.370;10.874;2024-02-14T11:32:18;2.53;;;1.27;;
9449;SDS011;4763;48.370;10.874;2024-02-14T11:34:53;1.60;;;1.03;;
9449;SDS011;4763;48.370;10.874;2024-02-14T11:37:26;1.87;;;1.17;;
9449;SDS011;4763;48.370;10.874;2024-02-14T11:39:53;1.20;;;1.03;;
9449;SDS011;4763;48.370;10.874;2024-02-14T11:42:21;3.57;;;1.40;;
9449;SDS011;4763;48.370;10.874;2024-02-14T11:44:48;1.40;;;1.07;;
9449;SDS011;4763;48.370;10.874;2024-02-14T11:47:15;2.07;;;1.20;;
9449;SDS011;4763;48.370;10.874;2024-02-14T11:49:42;2.10;;;1.20;;
9449;SDS011;4763;48.370;10.874;2024-02-14T11:52:12;1.50;;;1.10;;
9449;SDS011;4763;48.370;10.874;2024-02-14T11:54:40;2.60;;;1.27;;
9449;SDS011;4763;48.370;10.874;2024-02-14T11:57:16;1.60;;;1.40;;
9449;SDS011;4763;48.370;10.874;2024-02-14T11:59:43;1.60;;;1.20;;
9449;SDS011;4763;48.370;10.874;2024-02-14T12:02:12;1.50;;;0.87;;
9449;SDS011;4763;48.370;10.874;2024-02-14T12:04:39;1.80;;;1.40;;
9449;SDS011;4763;48.370;10.874;2024-02-14T12:07:06;3.13;;;1.13;;
9449;SDS011;4763;48.370;10.874;2024-02-14T12:09:34;3.17;;;1.30;;
9449;SDS011;4763;48.370;10.874;2024-02-14T12:12:01;2.40;;;0.90;;
9449;SDS011;4763;48.370;10.874;2024-02-14T12:14:29;2.13;;;0.93;;
9449;SDS011;4763;48.370;10.874;2024-02-14T12:16:56;3.33;;;1.30;;
9449;SDS011;4763;48.370;10.874;2024-02-14T12:19:25;1.53;;;1.00;;
9449;SDS011;4763;48.370;10.874;2024-02-14T12:21:52;2.10;;;1.00;;
9449;SDS011;4763;48.370;10.874;2024-02-14T12:24:20;2.43;;;0.90;;
9449;SDS011;4763;48.370;10.874;2024-02-14T12:26:50;1.60;;;1.00;;
9449;SDS011;4763;48.370;10.874;2024-02-14T12:29:17;1.60;;;0.97;;
9449;SDS011;4763;48.370;10.874;2024-02-14T12:31:44;1.37;;;1.07;;
9449;SDS011;4763;48.370;10.874;2024-02-14T12:34:11;0.77;;;0.73;;
9449;SDS011;4763;48.370;10.874;2024-02-14T12:36:38;1.67;;;0.80;;
9449;SDS011;4763;48.370;10.874;2024-02-14T12:39:05;1.27;;;1.00;;
9449;SDS011;4763;48.370;10.874;2024-02-14T12:41:34;2.57;;;1.00;;
9449;SDS011;4763;48.370;10.874;2024-02-14T12:44:06;1.67;;;1.20;;
9449;SDS011;4763;48.370;10.874;2024-02-14T12:46:32;1.10;;;0.90;;
9449;SDS011;4763;48.370;10.874;2024-02-14T12:49:03;1.43;;;0.77;;
9449;SDS011;4763;48.370;10.874;2024-02-14T12:51:33;1.27;;;0.70;;
9449;SDS011;4763;48.370;10.874;2024-02-14T12:54:08;1.50;;;0.80;;
9449;SDS011;4763;48.370;10.874;2024-02-14T12:56:37;1.33;;;0.80;;
9449;SDS011;4763;48.370;10.874;2024-02-14T12:59:06;1.77;;;1.00;;
9449;SDS011;4763;48.370;10.874;2024-02-14T13:01:35;1.20;;;1.00;;
9449;SDS011;4763;48.370;10.874;2024-02-14T13:04:02;1.13;;;0.93;;
9449;SDS011;4763;48.370;10.874;2024-02-14T13:06:30;1.20;;;0.97;;
9449;SDS011;4763;48.370;10.874;2024-02-14T13:08:57;1.67;;;0.93;;
9449;SDS011;4763;48.370;10.874;2024-02-14T13:11:25;0.90;;;0.80;;
9449;SDS011;4763;48.370;10.874;2024-02-14T13:13:52;1.60;;;1.00;;
9449;SDS011;4763;48.370;10.874;2024-02-14T13:16:21;2.13;;;1.13;;
9449;SDS011;4763;48.370;10.874;2024-02-14T13:18:48;1.67;;;0.90;;
9449;SDS011;4763;48.370;10.874;2024-02-14T13:21:15;2.07;;;1.03;;
9449;SDS011;4763;48.370;10.874;2024-02-14T13:23:42;0.80;;;0.70;;
9449;SDS011;4763;48.370;10.874;2024-02-14T13:26:09;1.50;;;0.90;;
9449;SDS011;4763;48.370;10.874;2024-02-14T13:28:36;3.80;;;1.13;;
9449;SDS011;4763;48.370;10.874;2024-02-14T13:31:02;0.87;;;0.80;;
9449;SDS011;4763;48.370;10.874;2024-02-14T13:33:31;2.73;;;0.90;;
9449;SDS011;4763;48.370;10.874;2024-02-14T13:35:57;0.80;;;0.67;;
9449;SDS011;4763;48.370;10.874;2024-02-14T13:38:24;1.93;;;0.77;;
9449;SDS011;4763;48.370;10.874;2024-02-14T13:40:51;0.93;;;0.80;;
9449;SDS011;4763;48.370;10.874;2024-02-14T13:43:18;0.87;;;0.70;;
9449;SDS011;4763;48.370;10.874;2024-02-14T13:45:45;1.03;;;0.80;;
9449;SDS011;4763;48.370;10.874;2024-02-14T13:48:14;1.40;;;0.97;;
9449;SDS011;4763;48.370;10.874;2024-02-14T13:50:42;0.80;;;0.80;;
9449;SDS011;4763;48.370;10.874;2024-02-14T13:53:09;2.13;;;1.07;;
9449;SDS011;4763;48.370;10.874;2024-02-14T13:55:36;0.83;;;0.70;;
9449;SDS011;4763;48.370;10.874;2024-02-14T13:58:04;0.90;;;0.80;;
9449;SDS011;4763;48.370;10.874;2024-02-14T14:00:34;1.03;;;0.80;;
9449;SDS011;4763;48.370;10.874;2024-02-14T14:03:01;6.77;;;4.47;;
9449;SDS011;4763;48.370;10.874;2024-02-14T14:05:28;2.77;;;1.10;;
9449;SDS011;4763;48.370;10.874;2024-02-14T14:07:57;2.47;;;2.17;;
9449;SDS011;4763;48.370;10.874;2024-02-14T14:10:25;4.53;;;4.03;;
9449;SDS011;4763;48.370;10.874;2024-02-14T14:12:53;1.30;;;1.20;;
9449;SDS011;4763;48.370;10.874;2024-02-14T14:15:20;1.90;;;1.27;;
9449;SDS011;4763;48.370;10.874;2024-02-14T14:17:47;3.93;;;1.20;;
9449;SDS011;4763;48.370;10.874;2024-02-14T14:20:14;2.33;;;0.90;;
9449;SDS011;4763;48.370;10.874;2024-02-14T14:22:41;2.40;;;0.90;;
9449;SDS011;4763;48.370;10.874;2024-02-14T14:25:09;1.03;;;0.90;;
9449;SDS011;4763;48.370;10.874;2024-02-14T14:27:36;2.67;;;0.93;;
9449;SDS011;4763;48.370;10.874;2024-02-14T14:30:04;1.30;;;0.90;;
9449;SDS011;4763;48.370;10.874;2024-02-14T14:32:32;2.40;;;2.20;;
9449;SDS011;4763;48.370;10.874;2024-02-14T14:34:59;6.07;;;4.53;;
9449;SDS011;4763;48.370;10.874;2024-02-14T14:37:25;2.50;;;2.30;;
9449;SDS011;4763;48.370;10.874;2024-02-14T14:39:52;3.20;;;2.87;;
9449;SDS011;4763;48.370;10.874;2024-02-14T14:42:21;1.77;;;1.57;;
9449;SDS011;4763;48.370;10.874;2024-02-14T14:44:49;3.60;;;1.57;;
9449;SDS011;4763;48.370;10.874;2024-02-14T14:47:16;2.53;;;1.20;;
9449;SDS011;4763;48.370;10.874;2024-02-14T14:49:43;2.03;;;1.60;;
9449;SDS011;4763;48.370;10.874;2024-02-14T14:52:10;2.40;;;1.30;;
9449;SDS011;4763;48.370;10.874;2024-02-14T14:54:36;1.23;;;1.00;;
9449;SDS011;4763;48.370;10.874;2024-02-14T14:57:03;1.37;;;1.13;;
9449;SDS011;4763;48.370;10.874;2024-02-14T14:59:38;3.03;;;1.23;;
9449;SDS011;4763;48.370;10.874;2024-02-14T15:02:06;2.00;;;1.47;;
9449;SDS011;4763;48.370;10.874;2024-02-14T15:04:34;2.13;;;1.60;;